Time;durP1;ratioP1;P1;durP2;ratioP2;P2;SDS_P1;SDS_P2;PMS_P1;PMS_P2;Temp;Humidity;BMP_temperature;BMP_pressure;BME280_temperature;BME280_humidity;BME280_pressure;Samples;Min_cycle;Max_cycle;Signal;HPM_P1;HPM_P2
2023/02/28 00:02:13;;;;;;;;;;;;;;;;;;5074036;28;19912;-75
2023/02/28 00:04:39;;;;;;;;;;;;;;;;;;5073905;28;19909;-74
2023/02/28 00:07:04;;;;;;;;;;;;;;;;;;5074045;28;20289;-74
2023/02/28 00:09:30;;;;;;;;;;;;;;;;;;5073828;28;20425;-75
2023/02/28 00:11:56;;;;;;;;;;;;;;;;;;5055940;28;20425;-74
2023/02/28 00:14:22;;;;;;;;;;;;;;;;;;5055839;28;20292;-75
2023/02/28 00:16:48;;;;;;;;;;;;;;;;;;5055766;28;20368;-75
2023/02/28 00:19:14;;;;;;;;;;;;;;;;;;5073757;28;19913;-75
2023/02/28 00:21:40;;;;;;;;;;;;;;;;;;5073719;28;19909;-75
2023/02/28 00:24:06;;;;;;;;;;;;;;;;;;5073853;28;20266;-74
2023/02/28 00:26:32;;;;;;;;;;;;;;;;;;5073658;28;19908;-74
2023/02/28 00:28:58;;;;;;;;;;;;;;;;;;5073850;28;19908;-75
2023/02/28 00:31:24;;;;;;;;;;;;;;;;;;5055637;28;19912;-75
2023/02/28 00:33:51;;;;;;;;;;;;;;;;;;5073787;28;19908;-73
2023/02/28 00:36:17;;;;;;;;;;;;;;;;;;5073663;28;19961;-75
2023/02/28 00:38:43;;;;;;;;;;;;;;;;;;5073458;28;19995;-75
2023/02/28 00:41:09;;;;;;;;;;;;;;;;;;5073121;28;19920;-74
2023/02/28 00:43:37;;;;;;;;;;;;;;;;;;5073018;28;20128;-75
2023/02/28 00:46:03;;;;;;;;;;;;;;;;;;5073586;28;19947;-75
2023/02/28 00:48:29;;;;;;;;;;;;;;;;;;5073446;28;19908;-74
2023/02/28 00:50:55;;;;;;;;;;;;;;;;;;5073851;28;19974;-75
2023/02/28 00:53:21;;;;;;;;;;;;;;;;;;5073425;28;19916;-75
2023/02/28 00:55:47;;;;;;;;;;;;;;;;;;5073391;28;20399;-74
2023/02/28 00:58:13;;;;;;;;;;;;;;;;;;5073275;28;19963;-74
2023/02/28 01:00:39;;;;;;;;;;;;;;;;;;5073319;28;19915;-74
2023/02/28 01:03:05;;;;;;;;;;;;;;;;;;5073300;28;19920;-75
2023/02/28 01:05:31;;;;;;;;;;;;;;;;;;5073359;28;19909;-75
2023/02/28 01:07:57;;;;;;;;;;;;;;;;;;5073270;28;19909;-75
2023/02/28 01:10:23;;;;;;;;;;;;;;;;;;5073557;28;19909;-75
2023/02/28 01:12:49;;;;;;;;;;;;;;;;;;5073253;28;20017;-74
2023/02/28 01:15:15;;;;;;;;;;;;;;;;;;5073204;28;20003;-75
2023/02/28 01:17:40;;;;;;;;;;;;;;;;;;5073126;28;19912;-75
2023/02/28 01:20:06;;;;;;;;;;;;;;;;;;5073121;28;20291;-75
2023/02/28 01:22:32;;;;;;;;;;;;;;;;;;5055116;28;20448;-74
2023/02/28 01:24:58;;;;;;;;;;;;;;;;;;5073097;28;19952;-74
2023/02/28 01:27:25;;;;;;;;;;;;;;;;;;5073292;28;19916;-75
2023/02/28 01:29:51;;;;;;;;;;;;;;;;;;5074184;28;20407;-75
2023/02/28 01:32:17;;;;;;;;;;;;;;;;;;5076777;28;20369;-75
2023/02/28 01:34:43;;;;;;;;;;;;;;;;;;5076728;28;19915;-74
2023/02/28 01:37:09;;;;;;;;;;;;;;;;;;5076990;28;19908;-75
2023/02/28 01:39:35;;;;;;;;;;;;;;;;;;5076442;28;20061;-74
2023/02/28 01:42:00;;;;;;;;;;;;;;;;;;5058635;28;19951;-75
2023/02/28 01:44:26;;;;;;;;;;;;;;;;;;5076620;28;19908;-74
2023/02/28 01:46:52;;;;;;;;;;;;;;;;;;5076500;28;19916;-75
2023/02/28 01:49:18;;;;;;;;;;;;;;;;;;5058497;28;19913;-75
2023/02/28 01:51:46;;;;;;;;;;;;;;;;;;5058453;28;20300;-75
2023/02/28 01:54:13;;;;;;;;;;;;;;;;;;5076369;28;19916;-75
2023/02/28 01:56:39;;;;;;;;;;;;;;;;;;5058359;28;19909;-75
2023/02/28 01:59:05;;;;;;;;;;;;;;;;;;5058215;28;20383;-75
2023/02/28 02:01:31;;;;;;;;;;;;;;;;;;5075847;28;20315;-74
2023/02/28 02:03:57;;;;;;;;;;;;;;;;;;5076204;28;19908;-74
2023/02/28 02:06:23;;;;;;;;;;;;;;;;;;5076356;28;19908;-75
2023/02/28 02:08:49;;;;;;;;;;;;;;;;;;5076135;28;19910;-75
2023/02/28 02:11:14;;;;;;;;;;;;;;;;;;5076043;28;19932;-74
2023/02/28 02:13:40;;;;;;;;;;;;;;;;;;5076455;28;20373;-75
2023/02/28 02:16:06;;;;;;;;;;;;;;;;;;5076284;28;20436;-75
2023/02/28 02:18:32;;;;;;;;;;;;;;;;;;5075877;28;20017;-75
2023/02/28 02:20:58;;;;;;;;;;;;;;;;;;5075862;28;19913;-75
2023/02/28 02:23:24;;;;;;;;;;;;;;;;;;5075846;28;19915;-74
2023/02/28 02:25:50;;;;;;;;;;;;;;;;;;5075951;28;19909;-75
2023/02/28 02:28:16;;;;;;;;;;;;;;;;;;5075796;28;19913;-73
2023/02/28 02:30:42;;;;;;;;;;;;;;;;;;5075682;28;19908;-74
2023/02/28 02:33:08;;;;;;;;;;;;;;;;;;5075840;28;19909;-74
2023/02/28 02:35:34;;;;;;;;;;;;;;;;;;5075604;28;19915;-74
2023/02/28 02:38:00;;;;;;;;;;;;;;;;;;5075612;28;20003;-74
2023/02/28 02:40:26;;;;;;;;;;;;;;;;;;5075243;28;19924;-74
2023/02/28 02:42:52;;;;;;;;;;;;;;;;;;5075443;28;19908;-75
2023/02/28 02:45:17;;;;;;;;;;;;;;;;;;5057381;28;19909;-74
2023/02/28 02:47:43;;;;;;;;;;;;;;;;;;5075498;28;19909;-74
2023/02/28 02:50:09;;;;;;;;;;;;;;;;;;5075417;28;19967;-75
2023/02/28 02:52:35;;;;;;;;;;;;;;;;;;5075294;28;20391;-75
2023/02/28 02:55:01;;;;;;;;;;;;;;;;;;5075243;28;20292;-75
2023/02/28 02:57:27;;;;;;;;;;;;;;;;;;5074990;28;19912;-74
2023/02/28 02:59:53;;;;;;;;;;;;;;;;;;5075285;28;19916;-74
2023/02/28 03:02:19;;;;;;;;;;;;;;;;;;5075128;28;19908;-74
2023/02/28 03:04:45;;;;;;;;;;;;;;;;;;5075047;28;20005;-75
2023/02/28 03:07:11;;;;;;;;;;;;;;;;;;5075175;28;19909;-75
2023/02/28 03:09:37;;;;;;;;;;;;;;;;;;5074954;28;19935;-74
2023/02/28 03:12:03;;;;;;;;;;;;;;;;;;5074987;28;19915;-74
2023/02/28 03:14:29;;;;;;;;;;;;;;;;;;5074792;28;19917;-75
2023/02/28 03:16:55;;;;;;;;;;;;;;;;;;5056833;28;20486;-75
2023/02/28 03:19:21;;;;;;;;;;;;;;;;;;5056681;28;19912;-75
2023/02/28 03:21:47;;;;;;;;;;;;;;;;;;5074718;28;19913;-74
2023/02/28 03:24:12;;;;;;;;;;;;;;;;;;5074654;28;19908;-75
2023/02/28 03:26:38;;;;;;;;;;;;;;;;;;5075150;28;19915;-75
2023/02/28 03:29:05;;;;;;;;;;;;;;;;;;5074674;28;19915;-74
2023/02/28 03:31:31;;;;;;;;;;;;;;;;;;5074805;28;19908;-75
2023/02/28 03:33:57;;;;;;;;;;;;;;;;;;5074497;28;20003;-75
2023/02/28 03:36:23;;;;;;;;;;;;;;;;;;5074389;28;19909;-74
2023/02/28 03:38:48;;;;;;;;;;;;;;;;;;5056376;28;20368;-76
2023/02/28 03:41:14;;;;;;;;;;;;;;;;;;5074143;28;20011;-75
2023/02/28 03:43:40;;;;;;;;;;;;;;;;;;5074320;28;19909;-74
2023/02/28 03:46:06;;;;;;;;;;;;;;;;;;5074252;28;19909;-75
2023/02/28 03:48:32;;;;;;;;;;;;;;;;;;5056257;28;19915;-75
2023/02/28 03:50:58;;;;;;;;;;;;;;;;;;5074162;28;19915;-75
2023/02/28 03:53:24;;;;;;;;;;;;;;;;;;5073573;28;19909;-74
2023/02/28 03:55:50;;;;;;;;;;;;;;;;;;5074159;28;19948;-75
2023/02/28 03:58:16;;;;;;;;;;;;;;;;;;5074003;28;20335;-75
2023/02/28 04:00:42;;;;;;;;;;;;;;;;;;5056010;28;20418;-75
2023/02/28 04:03:08;;;;;;;;;;;;;;;;;;5074402;28;19909;-75
2023/02/28 04:05:34;;;;;;;;;;;;;;;;;;5074275;28;19978;-75
2023/02/28 04:08:00;;;;;;;;;;;;;;;;;;5055882;28;19908;-75
2023/02/28 04:10:25;;;;;;;;;;;;;;;;;;5055889;28;19951;-74
2023/02/28 04:12:51;;;;;;;;;;;;;;;;;;5073824;28;19915;-75
2023/02/28 04:15:17;;;;;;;;;;;;;;;;;;5073783;28;19908;-75
2023/02/28 04:17:43;;;;;;;;;;;;;;;;;;5073859;28;19912;-74
2023/02/28 04:20:09;;;;;;;;;;;;;;;;;;5073765;28;20280;-74
2023/02/28 04:22:36;;;;;;;;;;;;;;;;;;5073731;28;19909;-73
2023/02/28 04:25:01;;;;;;;;;;;;;;;;;;5055678;28;20292;-74
2023/02/28 04:27:27;;;;;;;;;;;;;;;;;;5074056;28;19916;-74
2023/02/28 04:29:53;;;;;;;;;;;;;;;;;;5073867;28;19908;-74
2023/02/28 04:32:19;;;;;;;;;;;;;;;;;;5073644;28;19909;-75
2023/02/28 04:34:45;;;;;;;;;;;;;;;;;;5073683;28;19909;-74
2023/02/28 04:37:11;;;;;;;;;;;;;;;;;;5073388;28;19958;-74
2023/02/28 04:39:37;;;;;;;;;;;;;;;;;;5073359;28;19925;-74
2023/02/28 04:42:03;;;;;;;;;;;;;;;;;;5073467;28;19948;-74
2023/02/28 04:44:29;;;;;;;;;;;;;;;;;;5055530;28;20331;-75
2023/02/28 04:46:55;;;;;;;;;;;;;;;;;;5073331;28;20466;-75
2023/02/28 04:49:21;;;;;;;;;;;;;;;;;;5073485;28;19908;-75
2023/02/28 04:51:47;;;;;;;;;;;;;;;;;;5073445;28;19943;-75
2023/02/28 04:54:13;;;;;;;;;;;;;;;;;;5073827;28;19909;-75
2023/02/28 04:56:39;;;;;;;;;;;;;;;;;;5073368;28;19959;-74
2023/02/28 04:59:05;;;;;;;;;;;;;;;;;;5073347;28;20388;-74
2023/02/28 05:01:30;;;;;;;;;;;;;;;;;;5073342;28;20372;-74
2023/02/28 05:03:56;;;;;;;;;;;;;;;;;;5073685;28;19916;-75
2023/02/28 05:06:23;;;;;;;;;;;;;;;;;;5077027;28;19909;-74
2023/02/28 05:08:49;;;;;;;;;;;;;;;;;;5077229;28;20361;-75
2023/02/28 05:11:15;;;;;;;;;;;;;;;;;;5077269;28;19915;-74
2023/02/28 05:13:41;;;;;;;;;;;;;;;;;;5077230;28;20369;-75
2023/02/28 05:16:07;;;;;;;;;;;;;;;;;;5059154;28;19908;-74
2023/02/28 05:18:33;;;;;;;;;;;;;;;;;;5076996;28;19967;-74
2023/02/28 05:21:01;;;;;;;;;;;;;;;;;;5077016;28;19916;-75
2023/02/28 05:23:27;;;;;;;;;;;;;;;;;;5059000;28;19912;-74
2023/02/28 05:25:53;;;;;;;;;;;;;;;;;;5058977;28;19908;-74
2023/02/28 05:28:19;;;;;;;;;;;;;;;;;;5077014;28;19966;-74
2023/02/28 05:30:45;;;;;;;;;;;;;;;;;;5076913;28;19916;-74
2023/02/28 05:33:11;;;;;;;;;;;;;;;;;;5076766;28;19974;-74
2023/02/28 05:35:37;;;;;;;;;;;;;;;;;;5076742;28;20292;-75
2023/02/28 05:38:03;;;;;;;;;;;;;;;;;;5058600;28;20379;-75
2023/02/28 05:40:29;;;;;;;;;;;;;;;;;;5076415;28;19920;-74
2023/02/28 05:42:55;;;;;;;;;;;;;;;;;;5058591;28;19916;-74
2023/02/28 05:45:21;;;;;;;;;;;;;;;;;;5076566;28;19909;-75
2023/02/28 05:47:47;;;;;;;;;;;;;;;;;;5058551;28;19999;-74
2023/02/28 05:50:13;;;;;;;;;;;;;;;;;;5076457;28;19954;-74
2023/02/28 05:52:39;;;;;;;;;;;;;;;;;;5076467;28;19959;-75
2023/02/28 05:55:04;;;;;;;;;;;;;;;;;;5076344;28;19947;-75
2023/02/28 05:57:30;;;;;;;;;;;;;;;;;;5076197;28;20361;-75
2023/02/28 05:59:56;;;;;;;;;;;;;;;;;;5076246;28;19912;-74
2023/02/28 06:02:22;;;;;;;;;;;;;;;;;;5076510;28;19952;-75
2023/02/28 06:04:48;;;;;;;;;;;;;;;;;;5058004;28;19916;-75
2023/02/28 06:07:14;;;;;;;;;;;;;;;;;;5076183;28;20361;-74
2023/02/28 06:09:40;;;;;;;;;;;;;;;;;;5076154;28;19908;-75
2023/02/28 06:12:07;;;;;;;;;;;;;;;;;;5076327;28;19919;-74
2023/02/28 06:14:32;;;;;;;;;;;;;;;;;;5058075;28;19962;-75
2023/02/28 06:16:58;;;;;;;;;;;;;;;;;;5075454;28;19913;-74
2023/02/28 06:19:28;;;;;;;;;;;;;;;;;;5075829;28;19913;-75
2023/02/28 06:21:54;;;;;;;;;;;;;;;;;;5057960;28;19908;-75
2023/02/28 06:24:20;;;;;;;;;;;;;;;;;;5057947;28;20288;-75
2023/02/28 06:26:46;;;;;;;;;;;;;;;;;;5076163;28;20003;-74
2023/02/28 06:29:12;;;;;;;;;;;;;;;;;;5075847;28;19909;-74
2023/02/28 06:31:41;;;;;;;;;;;;;;;;;;5057749;28;20265;-74
2023/02/28 06:34:07;;;;;;;;;;;;;;;;;;5057478;28;19908;-75
2023/02/28 06:36:32;;;;;;;;;;;;;;;;;;5075633;28;19908;-75
2023/02/28 06:38:58;;;;;;;;;;;;;;;;;;5075431;28;19919;-74
2023/02/28 06:41:24;;;;;;;;;;;;;;;;;;5075626;28;19970;-74
2023/02/28 06:43:50;;;;;;;;;;;;;;;;;;5075480;28;19931;-76
2023/02/28 06:46:16;;;;;;;;;;;;;;;;;;5075438;28;19920;-75
2023/02/28 06:48:42;;;;;;;;;;;;;;;;;;5057420;28;19909;-75
2023/02/28 06:51:08;;;;;;;;;;;;;;;;;;5075256;28;19955;-74
2023/02/28 06:53:34;;;;;;;;;;;;;;;;;;5075024;28;19954;-74
2023/02/28 06:56:00;;;;;;;;;;;;;;;;;;5056998;28;19958;-73
2023/02/28 06:58:26;;;;;;;;;;;;;;;;;;5075020;28;19916;-74
2023/02/28 07:00:52;;;;;;;;;;;;;;;;;;5075086;28;19909;-73
2023/02/28 07:03:18;;;;;;;;;;;;;;;;;;5075321;28;20439;-74
2023/02/28 07:05:44;;;;;;;;;;;;;;;;;;5057116;28;19959;-74
2023/02/28 07:08:10;;;;;;;;;;;;;;;;;;5075002;28;19952;-75
2023/02/28 07:10:36;;;;;;;;;;;;;;;;;;5075251;28;19912;-75
2023/02/28 07:13:02;;;;;;;;;;;;;;;;;;5074848;28;19915;-74
2023/02/28 07:15:27;;;;;;;;;;;;;;;;;;5075071;28;19915;-75
2023/02/28 07:17:53;;;;;;;;;;;;;;;;;;5075010;28;19919;-74
2023/02/28 07:20:19;;;;;;;;;;;;;;;;;;5074726;28;19915;-74
2023/02/28 07:22:45;;;;;;;;;;;;;;;;;;5074768;28;19908;-75
2023/02/28 07:25:11;;;;;;;;;;;;;;;;;;5056673;28;19993;-74
2023/02/28 07:27:37;;;;;;;;;;;;;;;;;;5073629;28;19954;-74
2023/02/28 07:30:03;;;;;;;;;;;;;;;;;;5074864;28;19908;-74
2023/02/28 07:32:29;;;;;;;;;;;;;;;;;;5074719;28;20000;-75
2023/02/28 07:34:55;;;;;;;;;;;;;;;;;;5074459;28;19931;-73
2023/02/28 07:37:21;;;;;;;;;;;;;;;;;;5074308;28;19908;-74
2023/02/28 07:39:47;;;;;;;;;;;;;;;;;;5074179;28;20402;-74
2023/02/28 07:42:13;;;;;;;;;;;;;;;;;;5074259;28;20377;-75
2023/02/28 07:44:40;;;;;;;;;;;;;;;;;;5074527;28;20373;-75
2023/02/28 07:47:06;;;;;;;;;;;;;;;;;;5056256;28;19961;-74
2023/02/28 07:49:32;;;;;;;;;;;;;;;;;;5056144;28;19908;-74
2023/02/28 07:51:58;;;;;;;;;;;;;;;;;;5056147;28;19909;-75
2023/02/28 07:54:23;;;;;;;;;;;;;;;;;;5056140;28;19979;-73
2023/02/28 07:56:49;;;;;;;;;;;;;;;;;;5074061;28;19932;-74
2023/02/28 07:59:15;;;;;;;;;;;;;;;;;;5073902;28;20364;-74
2023/02/28 08:01:43;;;;;;;;;;;;;;;;;;5073970;28;19908;-76
2023/02/28 08:04:09;;;;;;;;;;;;;;;;;;5074234;28;19993;-76
2023/02/28 08:06:35;;;;;;;;;;;;;;;;;;5074020;28;19912;-74
2023/02/28 08:09:01;;;;;;;;;;;;;;;;;;5055934;28;19962;-74
2023/02/28 08:11:27;;;;;;;;;;;;;;;;;;5074081;28;19909;-74
2023/02/28 08:13:53;;;;;;;;;;;;;;;;;;5073521;28;19912;-74
2023/02/28 08:16:21;;;;;;;;;;;;;;;;;;5073686;28;20371;-74
2023/02/28 08:18:47;;;;;;;;;;;;;;;;;;5073706;28;19912;-74
2023/02/28 08:21:13;;;;;;;;;;;;;;;;;;5055655;28;19909;-75
2023/02/28 08:23:40;;;;;;;;;;;;;;;;;;5055659;28;19909;-74
2023/02/28 08:26:05;;;;;;;;;;;;;;;;;;5055670;28;19913;-74
2023/02/28 08:28:31;;;;;;;;;;;;;;;;;;5073755;28;20326;-75
2023/02/28 08:30:57;;;;;;;;;;;;;;;;;;5073642;28;20007;-73
2023/02/28 08:33:23;;;;;;;;;;;;;;;;;;5073615;28;19954;-74
2023/02/28 08:35:49;;;;;;;;;;;;;;;;;;5074120;28;19909;-75
2023/02/28 08:38:15;;;;;;;;;;;;;;;;;;5055217;28;20360;-74
2023/02/28 08:40:42;;;;;;;;;;;;;;;;;;5055325;28;20019;-74
2023/02/28 08:43:08;;;;;;;;;;;;;;;;;;5073449;28;20357;-73
2023/02/28 08:45:34;;;;;;;;;;;;;;;;;;5073799;28;19916;-74
2023/02/28 08:48:00;;;;;;;;;;;;;;;;;;5073531;28;19908;-74
2023/02/28 08:50:26;;;;;;;;;;;;;;;;;;5055498;28;19947;-75
2023/02/28 08:52:52;;;;;;;;;;;;;;;;;;5055386;28;19908;-75
2023/02/28 08:55:18;;;;;;;;;;;;;;;;;;5073413;28;19958;-76
2023/02/28 08:57:44;;;;;;;;;;;;;;;;;;5073443;28;20007;-75
2023/02/28 09:00:13;;;;;;;;;;;;;;;;;;5073358;28;19909;-75
2023/02/28 09:02:39;;;;;;;;;;;;;;;;;;5073373;28;19908;-75
2023/02/28 09:05:05;;;;;;;;;;;;;;;;;;5073371;28;19916;-75
2023/02/28 09:07:31;;;;;;;;;;;;;;;;;;5073300;28;19909;-73
2023/02/28 09:09:57;;;;;;;;;;;;;;;;;;5073331;28;20291;-72
2023/02/28 09:12:23;;;;;;;;;;;;;;;;;;5073156;28;19909;-73
2023/02/28 09:14:49;;;;;;;;;;;;;;;;;;5073763;28;19915;-74
2023/02/28 09:17:15;;;;;;;;;;;;;;;;;;5073135;28;19916;-74
2023/02/28 09:19:42;;;;;;;;;;;;;;;;;;5073200;28;19944;-73
2023/02/28 09:22:08;;;;;;;;;;;;;;;;;;5055158;28;19943;-74
2023/02/28 09:24:34;;;;;;;;;;;;;;;;;;5055098;28;19908;-73
2023/02/28 09:27:00;;;;;;;;;;;;;;;;;;5073102;28;19915;-73
2023/02/28 09:29:26;;;;;;;;;;;;;;;;;;5055423;28;19912;-72
2023/02/28 09:31:52;;;;;;;;;;;;;;;;;;5073078;28;19912;-74
2023/02/28 09:34:18;;;;;;;;;;;;;;;;;;5073039;28;19909;-74
2023/02/28 09:36:44;;;;;;;;;;;;;;;;;;5073386;28;20470;-73
2023/02/28 09:39:10;;;;;;;;;;;;;;;;;;5072753;28;20360;-74
2023/02/28 09:41:36;;;;;;;;;;;;;;;;;;5073525;28;19924;-74
2023/02/28 09:44:02;;;;;;;;;;;;;;;;;;5072939;28;20421;-74
2023/02/28 09:46:28;;;;;;;;;;;;;;;;;;5072889;28;20368;-74
2023/02/28 09:48:55;;;;;;;;;;;;;;;;;;5072912;28;19915;-73
2023/02/28 09:51:21;;;;;;;;;;;;;;;;;;5075242;28;19915;-73
2023/02/28 09:53:47;;;;;;;;;;;;;;;;;;5076471;28;19909;-73
2023/02/28 09:56:13;;;;;;;;;;;;;;;;;;5076292;28;19952;-73
2023/02/28 09:58:39;;;;;;;;;;;;;;;;;;5076230;28;19919;-73
2023/02/28 10:01:06;;;;;;;;;;;;;;;;;;5076259;28;19908;-73
2023/02/28 10:03:32;;;;;;;;;;;;;;;;;;5076511;28;19913;-74
2023/02/28 10:05:57;;;;;;;;;;;;;;;;;;5076272;28;20371;-73
2023/02/28 10:08:25;;;;;;;;;;;;;;;;;;5076147;28;20025;-75
2023/02/28 10:10:52;;;;;;;;;;;;;;;;;;5058144;28;19908;-73
2023/02/28 10:13:18;;;;;;;;;;;;;;;;;;5076208;28;19972;-75
2023/02/28 10:15:44;;;;;;;;;;;;;;;;;;5076767;28;19909;-74
2023/02/28 10:18:10;;;;;;;;;;;;;;;;;;5076359;28;19919;-73
2023/02/28 10:20:36;;;;;;;;;;;;;;;;;;5057993;28;19912;-73
2023/02/28 10:23:07;;;;;;;;;;;;;;;;;;5076102;28;19916;-73
2023/02/28 10:25:33;;;;;;;;;;;;;;;;;;5076065;28;19912;-74
2023/02/28 10:27:59;;;;;;;;;;;;;;;;;;5075847;28;19915;-73
2023/02/28 10:30:24;;;;;;;;;;;;;;;;;;5076000;28;19908;-74
2023/02/28 10:32:53;;;;;;;;;;;;;;;;;;5075779;28;20284;-74
2023/02/28 10:35:19;;;;;;;;;;;;;;;;;;5075905;28;19908;-74
2023/02/28 10:37:45;;;;;;;;;;;;;;;;;;5075612;28;20016;-74
2023/02/28 10:40:11;;;;;;;;;;;;;;;;;;5075433;28;20357;-75
2023/02/28 10:42:38;;;;;;;;;;;;;;;;;;5075883;28;20375;-74
2023/02/28 10:45:04;;;;;;;;;;;;;;;;;;5075858;28;19912;-74
2023/02/28 10:47:30;;;;;;;;;;;;;;;;;;5075580;28;19958;-73
2023/02/28 10:49:56;;;;;;;;;;;;;;;;;;5075587;28;19920;-73
2023/02/28 10:52:22;;;;;;;;;;;;;;;;;;5075417;28;19908;-74
2023/02/28 10:54:48;;;;;;;;;;;;;;;;;;5057154;28;20404;-74
2023/02/28 10:57:14;;;;;;;;;;;;;;;;;;5057168;28;19978;-73
2023/02/28 10:59:40;;;;;;;;;;;;;;;;;;5075195;28;19912;-73
2023/02/28 11:02:06;;;;;;;;;;;;;;;;;;5075102;28;19912;-75
2023/02/28 11:04:32;;;;;;;;;;;;;;;;;;5075158;28;19913;-74
2023/02/28 11:06:58;;;;;;;;;;;;;;;;;;5075509;28;20300;-73
2023/02/28 11:09:24;;;;;;;;;;;;;;;;;;5074999;28;20023;-73
2023/02/28 11:11:52;;;;;;;;;;;;;;;;;;5057099;28;19974;-74
2023/02/28 11:14:18;;;;;;;;;;;;;;;;;;5074942;28;19995;-75
2023/02/28 11:16:44;;;;;;;;;;;;;;;;;;5074848;28;19943;-73
2023/02/28 11:19:10;;;;;;;;;;;;;;;;;;5074793;28;20285;-72
2023/02/28 11:21:40;;;;;;;;;;;;;;;;;;5074982;28;20434;-74
2023/02/28 11:24:05;;;;;;;;;;;;;;;;;;5074727;28;19908;-73
2023/02/28 11:26:32;;;;;;;;;;;;;;;;;;5074680;28;20280;-73
2023/02/28 11:28:58;;;;;;;;;;;;;;;;;;5056796;28;19951;-74
2023/02/28 11:31:24;;;;;;;;;;;;;;;;;;5074838;28;19908;-74
2023/02/28 11:33:50;;;;;;;;;;;;;;;;;;5074869;28;19908;-74
2023/02/28 11:36:16;;;;;;;;;;;;;;;;;;5074468;28;19962;-74
2023/02/28 11:38:42;;;;;;;;;;;;;;;;;;5074579;28;19913;-75
2023/02/28 11:41:08;;;;;;;;;;;;;;;;;;5073952;28;19981;-74
2023/02/28 11:43:34;;;;;;;;;;;;;;;;;;5074377;28;19915;-74
2023/02/28 11:46:00;;;;;;;;;;;;;;;;;;5074339;28;19940;-75
2023/02/28 11:48:26;;;;;;;;;;;;;;;;;;5056309;28;19928;-73
2023/02/28 11:50:52;;;;;;;;;;;;;;;;;;5074589;28;19958;-74
2023/02/28 11:53:18;;;;;;;;;;;;;;;;;;5074174;28;19908;-75
2023/02/28 11:55:44;;;;;;;;;;;;;;;;;;5074116;28;19909;-74
2023/02/28 11:58:10;;;;;;;;;;;;;;;;;;5074323;28;19912;-74
2023/02/28 12:00:35;;;;;;;;;;;;;;;;;;5074079;28;19944;-75
2023/02/28 12:03:01;;;;;;;;;;;;;;;;;;5074200;28;20288;-74
2023/02/28 12:05:27;;;;;;;;;;;;;;;;;;5055425;28;20391;-74
2023/02/28 12:07:54;;;;;;;;;;;;;;;;;;5079179;28;20003;-75
2023/02/28 12:10:20;;;;;;;;;;;;;;;;;;5064353;28;20333;-75
2023/02/28 12:12:46;;;;;;;;;;;;;;;;;;5082389;28;19944;-75
2023/02/28 12:15:11;;;;;;;;;;;;;;;;;;5082720;28;19915;-76
2023/02/28 12:17:39;;;;;;;;;;;;;;;;;;5084291;28;20360;-75
2023/02/28 12:20:05;;;;;;;;;;;;;;;;;;5065029;28;19908;-74
2023/02/28 12:22:31;;;;;;;;;;;;;;;;;;5083196;28;19969;-75
2023/02/28 12:24:57;;;;;;;;;;;;;;;;;;5084252;28;19916;-75
2023/02/28 12:27:23;;;;;;;;;;;;;;;;;;5084400;28;19955;-75
2023/02/28 12:29:49;;;;;;;;;;;;;;;;;;5064994;28;19916;-74
2023/02/28 12:32:15;;;;;;;;;;;;;;;;;;5082588;28;19908;-74
2023/02/28 12:34:41;;;;;;;;;;;;;;;;;;5082155;28;19915;-75
2023/02/28 12:37:07;;;;;;;;;;;;;;;;;;5093823;28;19912;-75
2023/02/28 12:39:33;;;;;;;;;;;;;;;;;;5093633;28;19966;-74
2023/02/28 12:41:58;;;;;;;;;;;;;;;;;;5093876;28;19909;-76
2023/02/28 12:44:24;;;;;;;;;;;;;;;;;;5093781;28;20292;-74
2023/02/28 12:46:50;;;;;;;;;;;;;;;;;;5093731;28;19915;-75
2023/02/28 12:49:16;;;;;;;;;;;;;;;;;;5093697;28;19912;-74
2023/02/28 12:51:42;;;;;;;;;;;;;;;;;;5093942;28;19908;-75
2023/02/28 12:54:08;;;;;;;;;;;;;;;;;;5093731;28;19916;-74
2023/02/28 12:56:34;;;;;;;;;;;;;;;;;;5093602;28;19947;-75
2023/02/28 12:59:00;;;;;;;;;;;;;;;;;;5093776;28;19912;-76
2023/02/28 13:01:27;;;;;;;;;;;;;;;;;;5093571;28;20080;-75
2023/02/28 13:03:53;;;;;;;;;;;;;;;;;;5093698;28;19908;-75
2023/02/28 13:06:18;;;;;;;;;;;;;;;;;;5093554;28;19957;-75
2023/02/28 13:08:44;;;;;;;;;;;;;;;;;;5093561;28;19908;-75
2023/02/28 13:11:10;;;;;;;;;;;;;;;;;;5094022;28;20405;-73
2023/02/28 13:13:37;;;;;;;;;;;;;;;;;;5093412;28;19912;-73
2023/02/28 13:16:03;;;;;;;;;;;;;;;;;;5093681;28;19915;-73
2023/02/28 13:18:29;;;;;;;;;;;;;;;;;;5093885;28;20280;-72
2023/02/28 13:20:55;;;;;;;;;;;;;;;;;;5093387;28;20357;-72
2023/02/28 13:23:21;;;;;;;;;;;;;;;;;;5093347;28;20045;-73
2023/02/28 13:25:48;;;;;;;;;;;;;;;;;;5094424;28;19912;-74
2023/02/28 13:28:14;;;;;;;;;;;;;;;;;;5097416;28;19915;-75
2023/02/28 13:30:40;;;;;;;;;;;;;;;;;;5097179;28;19908;-73
2023/02/28 13:33:06;;;;;;;;;;;;;;;;;;5097344;28;20015;-75
2023/02/28 13:35:32;;;;;;;;;;;;;;;;;;5097383;28;20378;-75
2023/02/28 13:37:58;;;;;;;;;;;;;;;;;;5097179;28;19919;-75
2023/02/28 13:40:24;;;;;;;;;;;;;;;;;;5078617;28;19927;-72
2023/02/28 13:42:50;;;;;;;;;;;;;;;;;;5096995;28;19908;-74
2023/02/28 13:45:16;;;;;;;;;;;;;;;;;;5078721;28;19912;-74
2023/02/28 13:47:46;;;;;;;;;;;;;;;;;;5097098;28;19908;-74
2023/02/28 13:50:12;;;;;;;;;;;;;;;;;;5096840;28;20384;-74
2023/02/28 13:52:38;;;;;;;;;;;;;;;;;;5096791;28;19908;-74
2023/02/28 13:55:04;;;;;;;;;;;;;;;;;;5096751;28;19908;-74
2023/02/28 13:57:30;;;;;;;;;;;;;;;;;;5096951;28;19915;-74
2023/02/28 13:59:56;;;;;;;;;;;;;;;;;;5096645;28;19915;-73
2023/02/28 14:02:23;;;;;;;;;;;;;;;;;;5096629;28;19914;-73
2023/02/28 14:04:49;;;;;;;;;;;;;;;;;;5096518;28;19948;-74
2023/02/28 14:07:15;;;;;;;;;;;;;;;;;;5096542;28;19970;-74
2023/02/28 14:09:41;;;;;;;;;;;;;;;;;;5096601;28;20353;-74
2023/02/28 14:12:07;;;;;;;;;;;;;;;;;;5096404;28;20330;-74
2023/02/28 14:14:33;;;;;;;;;;;;;;;;;;5096463;28;19908;-74
2023/02/28 14:16:59;;;;;;;;;;;;;;;;;;5096282;28;19908;-73
2023/02/28 14:19:25;;;;;;;;;;;;;;;;;;5096525;28;20008;-74
2023/02/28 14:21:51;;;;;;;;;;;;;;;;;;5096242;28;19947;-74
2023/02/28 14:24:17;;;;;;;;;;;;;;;;;;5078034;28;19912;-74
2023/02/28 14:26:43;;;;;;;;;;;;;;;;;;5077904;28;20403;-74
2023/02/28 14:29:10;;;;;;;;;;;;;;;;;;5096455;28;19908;-73
2023/02/28 14:31:36;;;;;;;;;;;;;;;;;;5077899;28;19908;-75
2023/02/28 14:34:02;;;;;;;;;;;;;;;;;;5096029;28;19914;-75
2023/02/28 14:36:28;;;;;;;;;;;;;;;;;;5095459;28;19999;-75
2023/02/28 14:38:54;;;;;;;;;;;;;;;;;;5096055;28;19912;-74
2023/02/28 14:41:20;;;;;;;;;;;;;;;;;;5096063;28;19920;-75
2023/02/28 14:43:46;;;;;;;;;;;;;;;;;;5077694;28;20322;-75
2023/02/28 14:46:12;;;;;;;;;;;;;;;;;;5095735;28;19915;-74
2023/02/28 14:48:38;;;;;;;;;;;;;;;;;;5095810;28;19908;-74
2023/02/28 14:51:04;;;;;;;;;;;;;;;;;;5077511;28;19912;-76
2023/02/28 14:53:30;;;;;;;;;;;;;;;;;;5095900;28;20322;-74
2023/02/28 14:55:55;;;;;;;;;;;;;;;;;;5095790;28;19995;-74
2023/02/28 14:58:21;;;;;;;;;;;;;;;;;;5095478;28;19912;-74
2023/02/28 15:00:47;;;;;;;;;;;;;;;;;;5095716;28;19931;-75
2023/02/28 15:03:13;;;;;;;;;;;;;;;;;;5095535;28;20377;-74
2023/02/28 15:05:39;;;;;;;;;;;;;;;;;;5095374;28;19908;-74
2023/02/28 15:08:05;;;;;;;;;;;;;;;;;;5095362;28;20053;-74
2023/02/28 15:10:31;;;;;;;;;;;;;;;;;;5095786;28;19961;-74
2023/02/28 15:12:57;;;;;;;;;;;;;;;;;;5077111;28;19935;-75
2023/02/28 15:15:23;;;;;;;;;;;;;;;;;;5095527;28;19917;-74
2023/02/28 15:17:49;;;;;;;;;;;;;;;;;;5095315;28;20314;-75
2023/02/28 15:20:15;;;;;;;;;;;;;;;;;;5095110;28;19908;-75
2023/02/28 15:22:41;;;;;;;;;;;;;;;;;;5095142;28;19909;-74
2023/02/28 15:25:08;;;;;;;;;;;;;;;;;;5095396;28;19939;-74
2023/02/28 15:27:34;;;;;;;;;;;;;;;;;;5094919;28;19908;-75
2023/02/28 15:29:59;;;;;;;;;;;;;;;;;;5094929;28;19916;-74
2023/02/28 15:32:25;;;;;;;;;;;;;;;;;;5094897;28;19953;-73
2023/02/28 15:34:51;;;;;;;;;;;;;;;;;;5095272;28;19909;-74
2023/02/28 15:37:17;;;;;;;;;;;;;;;;;;5095115;28;19915;-74
2023/02/28 15:39:43;;;;;;;;;;;;;;;;;;5094480;28;19921;-74
2023/02/28 15:42:09;;;;;;;;;;;;;;;;;;5094623;28;19918;-73
2023/02/28 15:44:35;;;;;;;;;;;;;;;;;;5095067;28;19908;-73
2023/02/28 15:47:01;;;;;;;;;;;;;;;;;;5095154;28;19908;-74
2023/02/28 15:49:27;;;;;;;;;;;;;;;;;;5093825;28;19912;-74
2023/02/28 15:51:53;;;;;;;;;;;;;;;;;;5094450;28;19994;-74
2023/02/28 15:54:19;;;;;;;;;;;;;;;;;;5094460;28;20005;-74
2023/02/28 15:56:45;;;;;;;;;;;;;;;;;;5094511;28;19908;-73
2023/02/28 15:59:11;;;;;;;;;;;;;;;;;;5094883;28;20325;-74
2023/02/28 16:01:37;;;;;;;;;;;;;;;;;;5094360;28;20372;-74
2023/02/28 16:04:03;;;;;;;;;;;;;;;;;;5076096;28;19908;-74
2023/02/28 16:06:28;;;;;;;;;;;;;;;;;;5094453;28;20003;-74
2023/02/28 16:08:54;;;;;;;;;;;;;;;;;;5076080;28;20284;-74
2023/02/28 16:11:20;;;;;;;;;;;;;;;;;;5094382;28;20379;-75
2023/02/28 16:13:46;;;;;;;;;;;;;;;;;;5094197;28;19937;-74
2023/02/28 16:16:12;;;;;;;;;;;;;;;;;;5094142;28;19908;-74
2023/02/28 16:18:38;;;;;;;;;;;;;;;;;;5094013;28;19916;-75
2023/02/28 16:21:04;;;;;;;;;;;;;;;;;;5094150;28;19995;-74
2023/02/28 16:23:30;;;;;;;;;;;;;;;;;;5075944;28;19966;-74
2023/02/28 16:25:56;;;;;;;;;;;;;;;;;;5093890;28;19931;-75
2023/02/28 16:28:22;;;;;;;;;;;;;;;;;;5075820;28;20261;-73
2023/02/28 16:30:48;;;;;;;;;;;;;;;;;;5093929;28;19908;-74
2023/02/28 16:33:13;;;;;;;;;;;;;;;;;;5093991;28;19998;-74
2023/02/28 16:35:39;;;;;;;;;;;;;;;;;;5093871;28;20437;-75
2023/02/28 16:38:05;;;;;;;;;;;;;;;;;;5093804;28;19967;-74